sensor_id;sensor_type;location;lat;lon;timestamp;pressure;altitude;pressure_sealevel;temperature;humidity
13029;BME280;6581;42.662;23.402;2023-01-25T00:02:04;96480.25;;;2.59;100.00
13029;BME280;6581;42.662;23.402;2023-01-25T00:04:31;96474.78;;;2.56;100.00
13029;BME280;6581;42.662;23.402;2023-01-25T00:06:59;96473.78;;;2.52;100.00
13029;BME280;6581;42.662;23.402;2023-01-25T00:09:27;96480.16;;;2.41;100.00
13029;BME280;6581;42.662;23.402;2023-01-25T00:11:54;96479.50;;;2.25;100.00
13029;BME280;6581;42.662;23.402;2023-01-25T00:14:23;96476.31;;;2.33;100.00
13029;BME280;6581;42.662;23.402;2023-01-25T00:16:50;96484.44;;;2.32;100.00
13029;BME280;6581;42.662;23.402;2023-01-25T00:19:17;96473.84;;;2.18;100.00
13029;BME280;6581;42.662;23.402;2023-01-25T00:21:45;96471.72;;;2.20;100.00
13029;BME280;6581;42.662;23.402;2023-01-25T00:24:14;96479.63;;;2.15;100.00
13029;BME280;6581;42.662;23.402;2023-01-25T00:26:41;96475.25;;;2.05;100.00
13029;BME280;6581;42.662;23.402;2023-01-25T00:29:11;96467.63;;;2.09;100.00
13029;BME280;6581;42.662;23.402;2023-01-25T00:31:49;96465.88;;;1.99;100.00
13029;BME280;6581;42.662;23.402;2023-01-25T00:34:38;96468.88;;;1.88;100.00
13029;BME280;6581;42.662;23.402;2023-01-25T00:37:36;96462.25;;;1.95;100.00
13029;BME280;6581;42.662;23.402;2023-01-25T00:40:08;96465.47;;;1.87;100.00
13029;BME280;6581;42.662;23.402;2023-01-25T00:42:37;96472.53;;;1.87;100.00
13029;BME280;6581;42.662;23.402;2023-01-25T00:45:05;96467.00;;;1.88;100.00
13029;BME280;6581;42.662;23.402;2023-01-25T00:47:32;96471.13;;;1.99;100.00
13029;BME280;6581;42.662;23.402;2023-01-25T00:50:04;96476.13;;;1.96;100.00
13029;BME280;6581;42.662;23.402;2023-01-25T00:52:31;96467.22;;;1.97;100.00
13029;BME280;6581;42.662;23.402;2023-01-25T00:54:58;96471.22;;;1.84;100.00
13029;BME280;6581;42.662;23.402;2023-01-25T00:57:27;96473.53;;;1.91;100.00
13029;BME280;6581;42.662;23.402;2023-01-25T00:59:54;96476.41;;;1.89;100.00
13029;BME280;6581;42.662;23.402;2023-01-25T01:02:21;96478.16;;;1.99;100.00
13029;BME280;6581;42.662;23.402;2023-01-25T01:04:52;96468.22;;;2.01;100.00
13029;BME280;6581;42.662;23.402;2023-01-25T01:07:43;96473.72;;;1.99;100.00
13029;BME280;6581;42.662;23.402;2023-01-25T01:10:11;96473.66;;;2.09;100.00
13029;BME280;6581;42.662;23.402;2023-01-25T01:12:39;96470.47;;;2.12;100.00
13029;BME280;6581;42.662;23.402;2023-01-25T01:15:08;96472.00;;;2.18;100.00
13029;BME280;6581;42.662;23.402;2023-01-25T01:17:35;96466.06;;;2.08;100.00
13029;BME280;6581;42.662;23.402;2023-01-25T01:20:02;96471.28;;;2.08;100.00
13029;BME280;6581;42.662;23.402;2023-01-25T01:22:29;96471.34;;;2.03;100.00
13029;BME280;6581;42.662;23.402;2023-01-25T01:24:56;96467.41;;;2.05;100.00
13029;BME280;6581;42.662;23.402;2023-01-25T01:27:23;96468.94;;;2.06;100.00
13029;BME280;6581;42.662;23.402;2023-01-25T01:29:52;96459.31;;;2.02;100.00
13029;BME280;6581;42.662;23.402;2023-01-25T01:32:19;96462.19;;;2.05;100.00
13029;BME280;6581;42.662;23.402;2023-01-25T01:34:48;96459.72;;;2.19;100.00
13029;BME280;6581;42.662;23.402;2023-01-25T01:37:16;96453.41;;;2.20;100.00
13029;BME280;6581;42.662;23.402;2023-01-25T01:39:43;96453.78;;;2.37;100.00
13029;BME280;6581;42.662;23.402;2023-01-25T01:42:11;96453.69;;;2.47;100.00
13029;BME280;6581;42.662;23.402;2023-01-25T01:44:46;96451.56;;;2.49;100.00
13029;BME280;6581;42.662;23.402;2023-01-25T01:47:19;96450.56;;;2.45;100.00
13029;BME280;6581;42.662;23.402;2023-01-25T01:49:53;96446.44;;;2.39;100.00
13029;BME280;6581;42.662;23.402;2023-01-25T01:52:25;96444.38;;;2.36;100.00
13029;BME280;6581;42.662;23.402;2023-01-25T01:54:57;96444.06;;;2.43;100.00
13029;BME280;6581;42.662;23.402;2023-01-25T01:57:29;96447.03;;;2.31;100.00
13029;BME280;6581;42.662;23.402;2023-01-25T02:00:02;96448.97;;;2.20;100.00
13029;BME280;6581;42.662;23.402;2023-01-25T02:02:40;96443.66;;;2.31;100.00
13029;BME280;6581;42.662;23.402;2023-01-25T02:05:13;96442.38;;;2.28;100.00
13029;BME280;6581;42.662;23.402;2023-01-25T02:07:46;96442.81;;;2.35;100.00
13029;BME280;6581;42.662;23.402;2023-01-25T02:10:15;96442.59;;;2.32;100.00
13029;BME280;6581;42.662;23.402;2023-01-25T02:12:44;96447.59;;;2.28;100.00
13029;BME280;6581;42.662;23.402;2023-01-25T02:15:11;96446.31;;;2.26;100.00
13029;BME280;6581;42.662;23.402;2023-01-25T02:17:40;96445.53;;;2.25;100.00
13029;BME280;6581;42.662;23.402;2023-01-25T02:20:16;96447.44;;;2.19;100.00
13029;BME280;6581;42.662;23.402;2023-01-25T02:22:50;96446.34;;;2.20;100.00
13029;BME280;6581;42.662;23.402;2023-01-25T02:25:22;96448.69;;;2.22;100.00
13029;BME280;6581;42.662;23.402;2023-01-25T02:27:52;96450.00;;;2.25;100.00
13029;BME280;6581;42.662;23.402;2023-01-25T02:30:21;96443.50;;;2.17;100.00
13029;BME280;6581;42.662;23.402;2023-01-25T02:32:50;96450.03;;;2.19;100.00
13029;BME280;6581;42.662;23.402;2023-01-25T02:35:18;96437.53;;;2.11;100.00
13029;BME280;6581;42.662;23.402;2023-01-25T02:37:47;96439.75;;;1.99;100.00
13029;BME280;6581;42.662;23.402;2023-01-25T02:40:16;96444.78;;;1.91;100.00
13029;BME280;6581;42.662;23.402;2023-01-25T02:43:08;96438.78;;;1.90;100.00
13029;BME280;6581;42.662;23.402;2023-01-25T02:45:35;96440.50;;;2.05;100.00
13029;BME280;6581;42.662;23.402;2023-01-25T02:48:03;96437.00;;;2.14;100.00
13029;BME280;6581;42.662;23.402;2023-01-25T02:50:30;96434.44;;;2.09;100.00
13029;BME280;6581;42.662;23.402;2023-01-25T02:52:57;96437.34;;;2.03;100.00
13029;BME280;6581;42.662;23.402;2023-01-25T02:55:24;96443.72;;;1.97;100.00
13029;BME280;6581;42.662;23.402;2023-01-25T02:57:52;96432.00;;;1.89;100.00
13029;BME280;6581;42.662;23.402;2023-01-25T03:00:21;96441.91;;;1.92;100.00
13029;BME280;6581;42.662;23.402;2023-01-25T03:02:48;96437.66;;;2.01;100.00
13029;BME280;6581;42.662;23.402;2023-01-25T03:05:15;96445.44;;;2.06;100.00
13029;BME280;6581;42.662;23.402;2023-01-25T03:07:43;96440.06;;;1.93;100.00
13029;BME280;6581;42.662;23.402;2023-01-25T03:10:10;96435.13;;;1.91;100.00
13029;BME280;6581;42.662;23.402;2023-01-25T03:12:37;96444.78;;;1.91;100.00
13029;BME280;6581;42.662;23.402;2023-01-25T03:15:05;96441.09;;;1.97;100.00
13029;BME280;6581;42.662;23.402;2023-01-25T03:17:34;96441.84;;;1.97;100.00
13029;BME280;6581;42.662;23.402;2023-01-25T03:20:02;96444.72;;;2.01;100.00
13029;BME280;6581;42.662;23.402;2023-01-25T03:22:54;96442.88;;;2.01;100.00
13029;BME280;6581;42.662;23.402;2023-01-25T03:25:21;96438.97;;;1.99;100.00
13029;BME280;6581;42.662;23.402;2023-01-25T03:27:57;96432.72;;;1.95;100.00
13029;BME280;6581;42.662;23.402;2023-01-25T03:30:24;96429.28;;;1.99;100.00
13029;BME280;6581;42.662;23.402;2023-01-25T03:32:53;96432.13;;;2.03;100.00
13029;BME280;6581;42.662;23.402;2023-01-25T03:35:20;96435.03;;;2.01;100.00
13029;BME280;6581;42.662;23.402;2023-01-25T03:37:47;96439.84;;;2.18;100.00
13029;BME280;6581;42.662;23.402;2023-01-25T03:40:15;96445.19;;;2.03;100.00
13029;BME280;6581;42.662;23.402;2023-01-25T03:42:46;96438.16;;;2.03;100.00
13029;BME280;6581;42.662;23.402;2023-01-25T03:45:13;96436.72;;;2.16;100.00
13029;BME280;6581;42.662;23.402;2023-01-25T03:47:41;96430.78;;;2.10;100.00
13029;BME280;6581;42.662;23.402;2023-01-25T03:50:10;96436.56;;;2.02;100.00
13029;BME280;6581;42.662;23.402;2023-01-25T03:52:51;96429.22;;;2.09;100.00
13029;BME280;6581;42.662;23.402;2023-01-25T03:55:47;96424.03;;;2.04;100.00
13029;BME280;6581;42.662;23.402;2023-01-25T03:58:15;96424.66;;;1.91;100.00
13029;BME280;6581;42.662;23.402;2023-01-25T04:00:42;96430.16;;;1.90;100.00
13029;BME280;6581;42.662;23.402;2023-01-25T04:03:09;96424.19;;;1.84;100.00
13029;BME280;6581;42.662;23.402;2023-01-25T04:05:38;96422.66;;;1.83;100.00
13029;BME280;6581;42.662;23.402;2023-01-25T04:08:06;96418.97;;;1.84;100.00
13029;BME280;6581;42.662;23.402;2023-01-25T04:10:37;96423.84;;;1.96;100.00
13029;BME280;6581;42.662;23.402;2023-01-25T04:13:06;96429.81;;;2.01;100.00
13029;BME280;6581;42.662;23.402;2023-01-25T04:15:33;96419.84;;;2.03;100.00
13029;BME280;6581;42.662;23.402;2023-01-25T04:18:08;96423.81;;;2.01;100.00
13029;BME280;6581;42.662;23.402;2023-01-25T04:20:36;96426.31;;;2.11;100.00
13029;BME280;6581;42.662;23.402;2023-01-25T04:23:04;96421.03;;;2.16;100.00
13029;BME280;6581;42.662;23.402;2023-01-25T04:26:01;96422.19;;;2.05;100.00
13029;BME280;6581;42.662;23.402;2023-01-25T04:28:32;96420.59;;;2.09;100.00
13029;BME280;6581;42.662;23.402;2023-01-25T04:31:00;96421.56;;;2.18;100.00
13029;BME280;6581;42.662;23.402;2023-01-25T04:33:34;96425.94;;;2.22;100.00
13029;BME280;6581;42.662;23.402;2023-01-25T04:36:01;96436.00;;;2.10;100.00
13029;BME280;6581;42.662;23.402;2023-01-25T04:38:30;96432.06;;;2.13;100.00
13029;BME280;6581;42.662;23.402;2023-01-25T04:41:00;96434.09;;;2.16;100.00
13029;BME280;6581;42.662;23.402;2023-01-25T04:44:20;96434.81;;;2.27;100.00
13029;BME280;6581;42.662;23.402;2023-01-25T04:46:47;96435.09;;;1.96;100.00
13029;BME280;6581;42.662;23.402;2023-01-25T04:49:14;96433.91;;;2.07;100.00
13029;BME280;6581;42.662;23.402;2023-01-25T04:51:42;96431.88;;;2.04;100.00
13029;BME280;6581;42.662;23.402;2023-01-25T04:54:10;96436.84;;;2.06;100.00
13029;BME280;6581;42.662;23.402;2023-01-25T04:56:37;96441.63;;;1.94;100.00
13029;BME280;6581;42.662;23.402;2023-01-25T04:59:04;96433.81;;;1.89;100.00
13029;BME280;6581;42.662;23.402;2023-01-25T05:01:32;96435.72;;;1.83;100.00
13029;BME280;6581;42.662;23.402;2023-01-25T05:04:00;96430.78;;;1.76;100.00
13029;BME280;6581;42.662;23.402;2023-01-25T05:06:37;96431.06;;;1.75;100.00
13029;BME280;6581;42.662;23.402;2023-01-25T05:09:05;96434.97;;;1.77;100.00
13029;BME280;6581;42.662;23.402;2023-01-25T05:11:35;96428.47;;;1.70;100.00
13029;BME280;6581;42.662;23.402;2023-01-25T05:14:31;96433.97;;;1.73;100.00
13029;BME280;6581;42.662;23.402;2023-01-25T05:16:59;96426.97;;;1.64;100.00
13029;BME280;6581;42.662;23.402;2023-01-25T05:19:26;96427.72;;;1.69;100.00
13029;BME280;6581;42.662;23.402;2023-01-25T05:21:58;96425.59;;;1.71;100.00
13029;BME280;6581;42.662;23.402;2023-01-25T05:24:37;96430.97;;;1.85;100.00
13029;BME280;6581;42.662;23.402;2023-01-25T05:27:10;96421.84;;;1.88;100.00
13029;BME280;6581;42.662;23.402;2023-01-25T05:29:48;96420.78;;;1.84;100.00
13029;BME280;6581;42.662;23.402;2023-01-25T05:32:17;96427.81;;;1.88;100.00
13029;BME280;6581;42.662;23.402;2023-01-25T05:35:10;96430.81;;;2.05;100.00
13029;BME280;6581;42.662;23.402;2023-01-25T05:37:38;96433.09;;;2.12;100.00
13029;BME280;6581;42.662;23.402;2023-01-25T05:40:10;96422.97;;;2.05;100.00
13029;BME280;6581;42.662;23.402;2023-01-25T05:42:40;96435.19;;;2.15;100.00
13029;BME280;6581;42.662;23.402;2023-01-25T05:45:14;96431.09;;;2.04;99.73
13029;BME280;6581;42.662;23.402;2023-01-25T05:47:51;96434.34;;;1.91;100.00
13029;BME280;6581;42.662;23.402;2023-01-25T05:50:18;96435.31;;;2.00;100.00
13029;BME280;6581;42.662;23.402;2023-01-25T05:53:01;96438.59;;;1.82;100.00
13029;BME280;6581;42.662;23.402;2023-01-25T05:55:29;96432.53;;;1.86;100.00
13029;BME280;6581;42.662;23.402;2023-01-25T05:58:02;96439.22;;;1.97;100.00
13029;BME280;6581;42.662;23.402;2023-01-25T06:00:31;96436.13;;;1.95;100.00
13029;BME280;6581;42.662;23.402;2023-01-25T06:02:59;96437.97;;;1.95;100.00
13029;BME280;6581;42.662;23.402;2023-01-25T06:05:26;96440.59;;;1.90;100.00
13029;BME280;6581;42.662;23.402;2023-01-25T06:07:54;96432.34;;;1.77;100.00
13029;BME280;6581;42.662;23.402;2023-01-25T06:10:23;96438.09;;;1.74;100.00
13029;BME280;6581;42.662;23.402;2023-01-25T06:12:56;96442.50;;;1.79;100.00
13029;BME280;6581;42.662;23.402;2023-01-25T06:15:25;96441.38;;;1.90;100.00
13029;BME280;6581;42.662;23.402;2023-01-25T06:17:56;96444.81;;;1.86;100.00
13029;BME280;6581;42.662;23.402;2023-01-25T06:20:36;96450.00;;;1.91;100.00
13029;BME280;6581;42.662;23.402;2023-01-25T06:23:06;96454.75;;;1.84;100.00
13029;BME280;6581;42.662;23.402;2023-01-25T06:25:33;96444.28;;;1.89;100.00
13029;BME280;6581;42.662;23.402;2023-01-25T06:28:00;96437.19;;;1.94;100.00
13029;BME280;6581;42.662;23.402;2023-01-25T06:30:28;96448.09;;;2.01;100.00
13029;BME280;6581;42.662;23.402;2023-01-25T06:32:57;96447.84;;;1.98;100.00
13029;BME280;6581;42.662;23.402;2023-01-25T06:35:24;96450.91;;;2.10;100.00
13029;BME280;6581;42.662;23.402;2023-01-25T06:37:54;96448.50;;;2.13;100.00
13029;BME280;6581;42.662;23.402;2023-01-25T06:40:21;96453.56;;;2.05;100.00
13029;BME280;6581;42.662;23.402;2023-01-25T06:42:48;96443.50;;;1.88;100.00
13029;BME280;6581;42.662;23.402;2023-01-25T06:45:15;96445.09;;;1.84;100.00
13029;BME280;6581;42.662;23.402;2023-01-25T06:47:44;96442.00;;;1.82;100.00
13029;BME280;6581;42.662;23.402;2023-01-25T06:50:13;96439.16;;;1.78;100.00
13029;BME280;6581;42.662;23.402;2023-01-25T06:52:40;96441.13;;;1.92;100.00
13029;BME280;6581;42.662;23.402;2023-01-25T06:55:08;96438.56;;;1.87;100.00
13029;BME280;6581;42.662;23.402;2023-01-25T06:57:38;96439.56;;;1.91;100.00
13029;BME280;6581;42.662;23.402;2023-01-25T07:00:07;96440.72;;;2.08;100.00
13029;BME280;6581;42.662;23.402;2023-01-25T07:02:35;96448.50;;;2.13;100.00
13029;BME280;6581;42.662;23.402;2023-01-25T07:05:04;96449.59;;;2.07;100.00
13029;BME280;6581;42.662;23.402;2023-01-25T07:07:31;96444.13;;;2.09;100.00
13029;BME280;6581;42.662;23.402;2023-01-25T07:09:58;96444.34;;;2.12;100.00
13029;BME280;6581;42.662;23.402;2023-01-25T07:12:27;96446.69;;;2.14;100.00
13029;BME280;6581;42.662;23.402;2023-01-25T07:14:54;96439.06;;;2.17;100.00
13029;BME280;6581;42.662;23.402;2023-01-25T07:17:22;96438.81;;;2.19;100.00
13029;BME280;6581;42.662;23.402;2023-01-25T07:19:49;96443.59;;;2.07;100.00
13029;BME280;6581;42.662;23.402;2023-01-25T07:22:18;96444.91;;;2.09;100.00
13029;BME280;6581;42.662;23.402;2023-01-25T07:24:45;96442.88;;;2.01;100.00
13029;BME280;6581;42.662;23.402;2023-01-25T07:27:15;96444.97;;;1.99;100.00
13029;BME280;6581;42.662;23.402;2023-01-25T07:29:42;96453.34;;;2.01;100.00
13029;BME280;6581;42.662;23.402;2023-01-25T07:32:11;96453.00;;;2.08;100.00
13029;BME280;6581;42.662;23.402;2023-01-25T07:34:38;96451.22;;;2.03;100.00
13029;BME280;6581;42.662;23.402;2023-01-25T07:37:05;96454.31;;;2.10;100.00
13029;BME280;6581;42.662;23.402;2023-01-25T07:39:35;96457.09;;;2.19;100.00
13029;BME280;6581;42.662;23.402;2023-01-25T07:42:02;96452.38;;;2.21;100.00
13029;BME280;6581;42.662;23.402;2023-01-25T07:44:31;96456.59;;;2.17;100.00
13029;BME280;6581;42.662;23.402;2023-01-25T07:47:09;96460.94;;;2.27;100.00
13029;BME280;6581;42.662;23.402;2023-01-25T07:50:01;96459.63;;;2.29;100.00
13029;BME280;6581;42.662;23.402;2023-01-25T07:52:29;96455.38;;;2.38;100.00
13029;BME280;6581;42.662;23.402;2023-01-25T07:54:57;96461.34;;;2.39;100.00
13029;BME280;6581;42.662;23.402;2023-01-25T07:57:24;96462.91;;;2.40;100.00
13029;BME280;6581;42.662;23.402;2023-01-25T07:59:52;96463.88;;;2.49;100.00
13029;BME280;6581;42.662;23.402;2023-01-25T08:02:20;96467.13;;;2.36;100.00
13029;BME280;6581;42.662;23.402;2023-01-25T08:04:48;96461.84;;;2.41;100.00
13029;BME280;6581;42.662;23.402;2023-01-25T08:07:16;96468.84;;;2.50;100.00
13029;BME280;6581;42.662;23.402;2023-01-25T08:09:44;96460.31;;;2.63;100.00
13029;BME280;6581;42.662;23.402;2023-01-25T08:12:13;96464.09;;;2.52;100.00
13029;BME280;6581;42.662;23.402;2023-01-25T08:14:41;96450.88;;;2.15;100.00
13029;BME280;6581;42.662;23.402;2023-01-25T08:17:09;96454.94;;;2.26;100.00
13029;BME280;6581;42.662;23.402;2023-01-25T08:19:36;96458.59;;;2.25;100.00
13029;BME280;6581;42.662;23.402;2023-01-25T08:22:03;96453.97;;;2.17;100.00
13029;BME280;6581;42.662;23.402;2023-01-25T08:24:30;96451.63;;;2.15;100.00
13029;BME280;6581;42.662;23.402;2023-01-25T08:26:57;96455.97;;;2.25;100.00
13029;BME280;6581;42.662;23.402;2023-01-25T08:29:26;96443.19;;;2.23;100.00
13029;BME280;6581;42.662;23.402;2023-01-25T08:31:53;96443.28;;;2.42;100.00
13029;BME280;6581;42.662;23.402;2023-01-25T08:34:21;96444.59;;;2.40;100.00
13029;BME280;6581;42.662;23.402;2023-01-25T08:36:48;96447.22;;;2.40;100.00
13029;BME280;6581;42.662;23.402;2023-01-25T08:39:15;96450.97;;;2.34;100.00
13029;BME280;6581;42.662;23.402;2023-01-25T08:41:44;96451.53;;;2.26;100.00
13029;BME280;6581;42.662;23.402;2023-01-25T08:44:11;96441.81;;;2.31;100.00
13029;BME280;6581;42.662;23.402;2023-01-25T08:46:39;96448.97;;;2.20;100.00
13029;BME280;6581;42.662;23.402;2023-01-25T08:49:07;96443.50;;;2.17;100.00
13029;BME280;6581;42.662;23.402;2023-01-25T08:51:35;96437.22;;;2.18;100.00
13029;BME280;6581;42.662;23.402;2023-01-25T08:54:26;96439.25;;;2.26;100.00
13029;BME280;6581;42.662;23.402;2023-01-25T08:56:54;96440.09;;;2.45;100.00
13029;BME280;6581;42.662;23.402;2023-01-25T08:59:21;96443.28;;;2.42;100.00
13029;BME280;6581;42.662;23.402;2023-01-25T09:01:49;96444.13;;;2.38;100.00
13029;BME280;6581;42.662;23.402;2023-01-25T09:04:16;96448.53;;;2.42;100.00
13029;BME280;6581;42.662;23.402;2023-01-25T09:06:43;96442.00;;;2.40;100.00
13029;BME280;6581;42.662;23.402;2023-01-25T09:09:11;96443.38;;;2.32;100.00
13029;BME280;6581;42.662;23.402;2023-01-25T09:11:38;96438.81;;;2.19;100.00
13029;BME280;6581;42.662;23.402;2023-01-25T09:14:06;96430.44;;;2.17;100.00
13029;BME280;6581;42.662;23.402;2023-01-25T09:16:33;96426.69;;;2.28;100.00
13029;BME280;6581;42.662;23.402;2023-01-25T09:19:03;96421.28;;;2.43;100.00
13029;BME280;6581;42.662;23.402;2023-01-25T09:21:31;96421.81;;;2.45;100.00
13029;BME280;6581;42.662;23.402;2023-01-25T09:24:00;96427.59;;;2.42;100.00
13029;BME280;6581;42.662;23.402;2023-01-25T09:26:27;96425.06;;;2.32;100.00
13029;BME280;6581;42.662;23.402;2023-01-25T09:28:55;96417.22;;;2.32;100.00
13029;BME280;6581;42.662;23.402;2023-01-25T09:31:22;96414.56;;;2.37;100.00
13029;BME280;6581;42.662;23.402;2023-01-25T09:34:13;96409.94;;;2.53;100.00
13029;BME280;6581;42.662;23.402;2023-01-25T09:36:40;96407.81;;;2.79;100.00
13029;BME280;6581;42.662;23.402;2023-01-25T09:39:08;96402.03;;;2.82;100.00
13029;BME280;6581;42.662;23.402;2023-01-25T09:41:55;96396.56;;;3.02;100.00
13029;BME280;6581;42.662;23.402;2023-01-25T09:44:38;96393.41;;;3.00;100.00
13029;BME280;6581;42.662;23.402;2023-01-25T09:47:16;96388.38;;;2.85;99.93
13029;BME280;6581;42.662;23.402;2023-01-25T09:50:00;96385.28;;;3.01;100.00
13029;BME280;6581;42.662;23.402;2023-01-25T09:52:45;96380.06;;;3.20;100.00
13029;BME280;6581;42.662;23.402;2023-01-25T09:55:21;96377.50;;;3.34;98.18
13029;BME280;6581;42.662;23.402;2023-01-25T09:57:50;96379.53;;;3.55;98.27
13029;BME280;6581;42.662;23.402;2023-01-25T10:00:23;96372.75;;;3.54;97.31
13029;BME280;6581;42.662;23.402;2023-01-25T10:03:22;96373.47;;;3.74;95.83
13029;BME280;6581;42.662;23.402;2023-01-25T10:05:56;96358.66;;;3.50;94.87
13029;BME280;6581;42.662;23.402;2023-01-25T10:08:30;96351.25;;;3.39;94.35
13029;BME280;6581;42.662;23.402;2023-01-25T10:11:03;96354.13;;;3.56;94.15
13029;BME280;6581;42.662;23.402;2023-01-25T10:13:59;96347.81;;;3.57;94.90
13029;BME280;6581;42.662;23.402;2023-01-25T10:16:29;96349.75;;;3.51;92.80
13029;BME280;6581;42.662;23.402;2023-01-25T10:19:04;96337.84;;;3.40;90.89
13029;BME280;6581;42.662;23.402;2023-01-25T10:21:39;96331.47;;;3.46;92.62
13029;BME280;6581;42.662;23.402;2023-01-25T10:24:45;96331.09;;;3.53;91.00
13029;BME280;6581;42.662;23.402;2023-01-25T10:27:25;96326.63;;;3.53;92.15
13029;BME280;6581;42.662;23.402;2023-01-25T10:29:56;96335.63;;;3.66;92.13
13029;BME280;6581;42.662;23.402;2023-01-25T10:32:25;96324.13;;;3.62;91.20
13029;BME280;6581;42.662;23.402;2023-01-25T10:35:00;96321.31;;;3.58;
13029;BME280;6581;42.662;23.402;2023-01-25T10:37:37;96321.03;;;3.60;89.36
13029;BME280;6581;42.662;23.402;2023-01-25T10:40:13;96311.19;;;3.84;88.53
13029;BME280;6581;42.662;23.402;2023-01-25T10:42:45;96311.41;;;3.88;89.02
13029;BME280;6581;42.662;23.402;2023-01-25T10:45:40;96305.75;;;4.08;87.83
13029;BME280;6581;42.662;23.402;2023-01-25T10:48:14;96305.97;;;4.12;86.41
13029;BME280;6581;42.662;23.402;2023-01-25T10:50:49;96297.13;;;3.94;87.31
13029;BME280;6581;42.662;23.402;2023-01-25T10:53:27;96296.56;;;4.11;87.61
13029;BME280;6581;42.662;23.402;2023-01-25T10:56:02;96290.63;;;4.32;86.28
13029;BME280;6581;42.662;23.402;2023-01-25T10:58:34;96292.09;;;4.11;86.17
13029;BME280;6581;42.662;23.402;2023-01-25T11:01:03;96290.44;;;4.15;86.05
13029;BME280;6581;42.662;23.402;2023-01-25T11:03:58;96286.34;;;4.23;86.34
13029;BME280;6581;42.662;23.402;2023-01-25T11:06:33;96284.03;;;4.21;86.39
13029;BME280;6581;42.662;23.402;2023-01-25T11:09:31;96276.03;;;4.13;87.43
13029;BME280;6581;42.662;23.402;2023-01-25T11:12:00;96278.09;;;4.16;87.01
13029;BME280;6581;42.662;23.402;2023-01-25T11:14:38;96278.38;;;4.14;87.41
13029;BME280;6581;42.662;23.402;2023-01-25T11:17:24;96264.38;;;4.32;85.82
13029;BME280;6581;42.662;23.402;2023-01-25T11:20:05;96264.66;;;4.31;83.94
13029;BME280;6581;42.662;23.402;2023-01-25T11:22:33;96262.75;;;4.09;84.07
13029;BME280;6581;42.662;23.402;2023-01-25T11:25:27;96264.50;;;4.27;85.29
13029;BME280;6581;42.662;23.402;2023-01-25T11:28:10;96259.44;;;4.44;85.05
13029;BME280;6581;42.662;23.402;2023-01-25T11:30:37;96256.22;;;4.47;84.87
13029;BME280;6581;42.662;23.402;2023-01-25T11:33:09;96258.44;;;4.40;85.95
13029;BME280;6581;42.662;23.402;2023-01-25T11:38:30;96238.00;;;4.01;84.81
13029;BME280;6581;42.662;23.402;2023-01-25T11:41:05;96257.22;;;3.97;86.53
13029;BME280;6581;42.662;23.402;2023-01-25T11:43:55;96237.13;;;3.92;88.16
13029;BME280;6581;42.662;23.402;2023-01-25T11:46:34;96237.41;;;3.91;87.12
13029;BME280;6581;42.662;23.402;2023-01-25T11:49:19;96227.78;;;3.73;87.97
13029;BME280;6581;42.662;23.402;2023-01-25T11:51:58;96222.75;;;3.90;89.00
13029;BME280;6581;42.662;23.402;2023-01-25T11:54:40;96222.19;;;3.93;88.01
13029;BME280;6581;42.662;23.402;2023-01-25T11:57:23;96215.38;;;4.06;88.69
13029;BME280;6581;42.662;23.402;2023-01-25T12:00:09;96210.63;;;4.08;87.52
13029;BME280;6581;42.662;23.402;2023-01-25T12:03:03;96214.41;;;4.01;87.13
13029;BME280;6581;42.662;23.402;2023-01-25T12:05:43;96214.13;;;4.03;87.99
13029;BME280;6581;42.662;23.402;2023-01-25T12:08:25;96212.66;;;3.83;87.24
13029;BME280;6581;42.662;23.402;2023-01-25T12:11:05;96203.13;;;3.74;88.60
13029;BME280;6581;42.662;23.402;2023-01-25T12:13:44;96201.59;;;3.86;88.04
13029;BME280;6581;42.662;23.402;2023-01-25T12:16:29;96200.72;;;3.91;86.40
13029;BME280;6581;42.662;23.402;2023-01-25T12:19:11;96197.31;;;3.90;87.24
13029;BME280;6581;42.662;23.402;2023-01-25T12:21:51;96197.88;;;4.01;87.01
13029;BME280;6581;42.662;23.402;2023-01-25T12:24:34;96199.25;;;4.12;86.61
13029;BME280;6581;42.662;23.402;2023-01-25T12:27:17;96202.34;;;4.14;87.03
13029;BME280;6581;42.662;23.402;2023-01-25T12:29:52;96184.06;;;4.23;85.89
13029;BME280;6581;42.662;23.402;2023-01-25T12:32:26;96196.03;;;4.15;86.48
13029;BME280;6581;42.662;23.402;2023-01-25T12:35:18;96186.25;;;4.07;87.41
13029;BME280;6581;42.662;23.402;2023-01-25T12:37:48;96191.84;;;4.14;86.55
13029;BME280;6581;42.662;23.402;2023-01-25T12:40:20;96187.66;;;4.13;85.59
13029;BME280;6581;42.662;23.402;2023-01-25T12:42:54;96191.00;;;3.78;86.63
13029;BME280;6581;42.662;23.402;2023-01-25T12:45:50;96183.34;;;3.81;89.08
13029;BME280;6581;42.662;23.402;2023-01-25T12:48:21;96175.78;;;3.93;87.33
13029;BME280;6581;42.662;23.402;2023-01-25T12:50:54;96178.06;;;3.95;87.58
13029;BME280;6581;42.662;23.402;2023-01-25T12:53:23;96173.44;;;3.92;86.84
13029;BME280;6581;42.662;23.402;2023-01-25T12:55:52;96173.34;;;3.83;86.80
13029;BME280;6581;42.662;23.402;2023-01-25T12:58:27;96169.84;;;3.88;87.92
13029;BME280;6581;42.662;23.402;2023-01-25T13:01:03;96175.28;;;3.91;88.57
13029;BME280;6581;42.662;23.402;2023-01-25T13:03:42;96171.19;;;3.99;87.15
13029;BME280;6581;42.662;23.402;2023-01-25T13:06:17;96165.38;;;4.02;86.99
13029;BME280;6581;42.662;23.402;2023-01-25T13:08:51;96163.28;;;4.13;86.40
13029;BME280;6581;42.662;23.402;2023-01-25T13:11:22;96162.94;;;4.06;86.16
13029;BME280;6581;42.662;23.402;2023-01-25T13:13:51;96160.50;;;3.95;86.77
13029;BME280;6581;42.662;23.402;2023-01-25T13:16:32;96153.25;;;3.92;87.41
13029;BME280;6581;42.662;23.402;2023-01-25T13:19:00;96153.50;;;4.05;87.75
13029;BME280;6581;42.662;23.402;2023-01-25T13:21:39;96162.34;;;3.95;88.00
13029;BME280;6581;42.662;23.402;2023-01-25T13:24:18;96151.97;;;3.63;87.09
13029;BME280;6581;42.662;23.402;2023-01-25T13:26:48;96149.47;;;3.57;88.20
13029;BME280;6581;42.662;23.402;2023-01-25T13:29:43;96149.34;;;3.35;88.86
13029;BME280;6581;42.662;23.402;2023-01-25T13:32:14;96154.41;;;3.45;89.82
13029;BME280;6581;42.662;23.402;2023-01-25T13:35:01;96149.28;;;3.54;89.95